Time;durP1;ratioP1;P1;durP2;ratioP2;P2;SDS_P1;SDS_P2;PMS_P1;PMS_P2;Temp;Humidity;BMP_temperature;BMP_pressure;BME280_temperature;BME280_humidity;BME280_pressure;Samples;Min_cycle;Max_cycle;Signal;HPM_P1;HPM_P2
2022/03/06 00:01:17;;;;;;;38.42;19.98;;;;;;;0.84;63.57;102276.63;5016353;28;20048;-79
2022/03/06 00:03:44;;;;;;;35.08;18.25;;;;;;;0.84;63.00;102278.31;5032500;28;20025;-79
2022/03/06 00:06:10;;;;;;;39.70;19.55;;;;;;;0.80;63.44;102281.66;5032688;28;20076;-80
2022/03/06 00:08:36;;;;;;;36.05;19.45;;;;;;;0.75;63.35;102286.66;5032685;28;20037;-79
2022/03/06 00:11:02;;;;;;;35.28;18.70;;;;;;;0.74;63.49;102291.81;5032715;28;20082;-80
2022/03/06 00:13:28;;;;;;;38.97;19.00;;;;;;;0.70;63.43;102280.38;5032704;28;20052;-79
2022/03/06 00:15:54;;;;;;;37.63;17.77;;;;;;;0.67;63.62;102287.16;5000049;28;20075;-80
2022/03/06 00:18:19;;;;;;;36.78;18.92;;;;;;;0.63;63.44;102289.66;5031560;28;20388;-80
2022/03/06 00:20:45;;;;;;;38.95;19.52;;;;;;;0.61;63.67;102288.69;5032717;28;20136;-79
2022/03/06 00:23:10;;;;;;;36.78;18.05;;;;;;;0.60;63.49;102291.25;5032492;28;20117;-80
2022/03/06 00:25:36;;;;;;;35.20;18.48;;;;;;;0.57;63.47;102293.69;5032599;28;20061;-80
2022/03/06 00:28:02;;;;;;;38.83;18.77;;;;;;;0.54;63.98;102289.25;5032887;28;20108;-80
2022/03/06 00:30:28;;;;;;;40.05;18.48;;;;;;;0.52;63.87;102293.53;5015856;28;20626;-80
2022/03/06 00:32:54;;;;;;;37.28;18.88;;;;;;;0.48;64.35;102289.00;5016168;28;20048;-80
2022/03/06 00:35:20;;;;;;;37.25;18.25;;;;;;;0.48;64.03;102295.94;5050552;28;20556;-80
2022/03/06 00:37:46;;;;;;;38.85;18.58;;;;;;;0.48;64.40;102294.22;5015823;28;20135;-80
2022/03/06 00:40:11;;;;;;;34.30;17.42;;;;;;;0.45;64.41;102306.25;5016021;28;20044;-80
2022/03/06 00:42:37;;;;;;;34.58;18.67;;;;;;;0.42;64.18;102307.88;5016159;28;20461;-80
2022/03/06 00:45:03;;;;;;;36.45;17.83;;;;;;;0.40;64.17;102314.75;5050365;28;20056;-80
2022/03/06 00:47:30;;;;;;;35.40;18.90;;;;;;;0.37;64.30;102313.69;5048218;28;20048;-80
2022/03/06 00:49:55;;;;;;;37.47;19.33;;;;;;;0.34;64.26;102313.56;5050406;28;20037;-80
2022/03/06 00:52:21;;;;;;;33.03;17.38;;;;;;;0.32;64.40;102321.34;5032133;28;20037;-80
2022/03/06 00:54:46;;;;;;;36.90;19.23;;;;;;;0.29;64.55;102320.31;5032394;28;20082;-80
2022/03/06 00:57:12;;;;;;;35.65;18.13;;;;;;;0.27;64.55;102320.22;5049941;28;20041;-80
2022/03/06 00:59:38;;;;;;;37.65;19.02;;;;;;;0.23;65.27;102325.25;5032346;28;20045;-80
2022/03/06 01:02:09;;;;;;;40.92;19.13;;;;;;;0.19;64.99;102330.31;5031764;28;20075;-80
2022/03/06 01:04:34;;;;;;;40.83;19.63;;;;;;;0.17;65.20;102326.78;5050109;28;20029;-80
2022/03/06 01:07:01;;;;;;;41.17;18.83;;;;;;;0.15;65.31;102319.72;5032190;28;20047;-80
2022/03/06 01:09:26;;;;;;;37.40;18.63;;;;;;;0.11;65.91;102321.28;5032276;28;20464;-80
2022/03/06 01:11:52;;;;;;;36.92;17.60;;;;;;;0.09;65.05;102322.03;5015739;28;20040;-80
2022/03/06 01:14:18;;;;;;;37.45;18.10;;;;;;;0.06;65.68;102332.31;5015610;28;20055;-80
2022/03/06 01:16:44;;;;;;;36.65;19.00;;;;;;;0.03;65.98;102326.97;5031926;28;20037;-80
2022/03/06 01:19:10;;;;;;;32.67;18.40;;;;;;;0.04;66.24;102331.34;5031988;28;20346;-79
2022/03/06 01:21:35;;;;;;;41.33;18.75;;;;;;;0.03;66.04;102324.38;4996981;28;20154;-80
2022/03/06 01:24:01;;;;;;;37.20;18.35;;;;;;;0.01;66.69;102333.81;5014020;28;20112;-81
2022/03/06 01:26:26;;;;;;;39.40;20.02;;;;;;;-0.03;66.95;102330.19;5012237;28;20048;-80
2022/03/06 01:28:52;;;;;;;33.88;17.70;;;;;;;-0.04;66.63;102331.00;5012484;28;20048;-80
2022/03/06 01:31:17;;;;;;;35.53;18.25;;;;;;;-0.06;67.16;102333.53;4998999;28;20052;-80
2022/03/06 01:33:42;;;;;;;29.77;16.55;;;;;;;-0.07;66.71;102338.69;5015952;28;20052;-79
2022/03/06 01:36:08;;;;;;;33.20;16.35;;;;;;;-0.09;66.54;102340.31;4999219;28;20120;-79
2022/03/06 01:38:34;;;;;;;33.75;18.05;;;;;;;-0.10;67.21;102347.25;5015784;28;20449;-80
2022/03/06 01:40:59;;;;;;;35.85;18.02;;;;;;;-0.11;66.68;102342.84;5015303;28;20075;-80
2022/03/06 01:43:25;;;;;;;30.13;16.88;;;;;;;-0.13;67.02;102349.69;5015406;28;20034;-80
2022/03/06 01:45:50;;;;;;;33.35;17.52;;;;;;;-0.16;67.29;102349.56;5032658;28;20416;-80
2022/03/06 01:48:16;;;;;;;31.23;16.05;;;;;;;-0.17;67.08;102346.88;5018391;28;20037;-80
2022/03/06 01:50:42;;;;;;;35.92;17.45;;;;;;;-0.20;67.61;102349.34;5018742;28;20033;-80
2022/03/06 01:53:09;;;;;;;33.95;16.77;;;;;;;-0.20;67.37;102345.03;5034861;28;20022;-79
2022/03/06 01:55:36;;;;;;;32.45;16.88;;;;;;;-0.21;66.94;102345.84;5053033;28;20035;-80
2022/03/06 01:58:04;;;;;;;35.58;18.15;;;;;;;-0.23;67.48;102347.50;5002091;28;20452;-80
2022/03/06 02:00:34;;;;;;;33.83;17.42;;;;;;;-0.25;67.82;102338.72;5034801;28;20043;-80
2022/03/06 02:02:59;;;;;;;30.10;16.50;;;;;;;-0.28;68.13;102344.66;5052928;28;20037;-79
2022/03/06 02:05:25;;;;;;;35.35;16.48;;;;;;;-0.30;67.74;102340.22;5034609;28;20108;-80
2022/03/06 02:07:51;;;;;;;35.95;17.73;;;;;;;-0.33;67.82;102351.38;5034670;28;20059;-80
2022/03/06 02:10:17;;;;;;;33.55;16.40;;;;;;;-0.34;68.43;102347.00;5052652;28;20040;-80
2022/03/06 02:12:44;;;;;;;37.47;18.50;;;;;;;-0.38;67.97;102347.66;5052485;28;20380;-80
2022/03/06 02:15:11;;;;;;;32.30;16.88;;;;;;;-0.38;68.50;102354.59;5052568;28;20710;-80
2022/03/06 02:17:38;;;;;;;35.88;17.95;;;;;;;-0.41;68.61;102350.13;5034367;28;20143;-80
2022/03/06 02:20:09;;;;;;;32.75;16.80;;;;;;;-0.44;68.89;102356.09;5052486;28;20036;-80
2022/03/06 02:22:40;;;;;;;34.63;17.95;;;;;;;-0.46;68.71;102355.13;5031124;28;20030;-80
2022/03/06 02:25:34;;;;;;;35.60;17.77;;;;;;;-0.46;68.24;102357.72;5014844;28;20478;-80
2022/03/06 02:28:01;;;;;;;30.50;16.23;;;;;;;-0.52;68.71;102361.72;4996259;28;20121;-80
2022/03/06 02:30:30;;;;;;;34.67;18.13;;;;;;;-0.56;69.09;102357.22;5015066;28;20049;-80
2022/03/06 02:32:58;;;;;;;33.55;16.67;;;;;;;-0.62;69.19;102364.72;5032644;28;20032;-80
2022/03/06 02:35:24;;;;;;;35.13;17.80;;;;;;;-0.66;69.87;102361.97;4998805;28;20040;-80
2022/03/06 02:37:50;;;;;;;33.97;17.25;;;;;;;-0.69;70.10;102360.94;5014913;28;20029;-80
2022/03/06 02:40:18;;;;;;;36.15;17.30;;;;;;;-0.71;70.08;102371.28;5032889;28;20037;-80
2022/03/06 02:42:45;;;;;;;34.15;18.10;;;;;;;-0.77;69.95;102368.34;5031911;28;20304;-79
2022/03/06 02:45:15;;;;;;;32.00;17.17;;;;;;;-0.78;69.82;102370.91;5014463;28;20052;-80
2022/03/06 02:47:41;;;;;;;33.92;17.50;;;;;;;-0.80;70.02;102363.00;5016825;28;20389;-80
2022/03/06 02:50:10;;;;;;;37.10;16.05;;;;;;;-0.81;69.84;102365.56;5017842;28;20037;-80
2022/03/06 02:52:36;;;;;;;27.55;16.20;;;;;;;-0.83;69.92;102362.88;5014268;28;20082;-79
2022/03/06 02:55:03;;;;;;;34.42;17.08;;;;;;;-0.84;70.22;102362.78;5014135;28;20467;-79
2022/03/06 02:57:29;;;;;;;35.60;16.50;;;;;;;-0.89;70.62;102360.88;4997939;28;20045;-79
2022/03/06 02:59:54;;;;;;;33.40;16.00;;;;;;;-0.91;70.35;102359.00;5031808;28;20114;-79
2022/03/06 03:02:20;;;;;;;31.67;16.50;;;;;;;-0.93;70.38;102361.53;5013998;28;20048;-79
2022/03/06 03:04:46;;;;;;;30.80;16.83;;;;;;;-0.96;71.17;102369.19;5018200;28;20038;-79
2022/03/06 03:07:24;;;;;;;31.73;16.70;;;;;;;-0.99;70.74;102366.44;5014099;28;20036;-80
2022/03/06 03:09:49;;;;;;;33.55;16.58;;;;;;;-1.00;71.05;102372.44;5032214;28;20040;-80
2022/03/06 03:12:15;;;;;;;35.13;16.02;;;;;;;-1.03;71.28;102374.88;5014146;28;20465;-79
2022/03/06 03:14:40;;;;;;;31.52;16.45;;;;;;;-1.03;71.09;102384.41;5032048;28;20055;-79
2022/03/06 03:17:09;;;;;;;33.75;16.25;;;;;;;-1.06;71.27;102377.34;5014096;28;20117;-80
2022/03/06 03:19:34;;;;;;;31.58;15.95;;;;;;;-1.08;71.11;102379.84;5014273;28;20037;-79
2022/03/06 03:22:00;;;;;;;31.33;15.80;;;;;;;-1.09;71.25;102371.97;5036520;28;20380;-79
2022/03/06 03:24:25;;;;;;;35.25;16.90;;;;;;;-1.09;71.45;102367.69;5017468;28;20392;-79
2022/03/06 03:26:51;;;;;;;32.35;16.90;;;;;;;-1.11;72.00;102358.91;5017140;28;20484;-79
2022/03/06 03:29:17;;;;;;;35.40;15.90;;;;;;;-1.14;71.43;102369.16;5051460;28;20481;-79
2022/03/06 03:31:43;;;;;;;29.73;16.23;;;;;;;-1.13;71.69;102359.66;5033235;28;20114;-79
2022/03/06 03:34:08;;;;;;;31.75;16.83;;;;;;;-1.16;71.94;102368.19;5051164;28;20044;-79
2022/03/06 03:36:34;;;;;;;28.33;15.43;;;;;;;-1.18;71.62;102368.91;5051227;28;20212;-79
2022/03/06 03:38:59;;;;;;;30.15;15.50;;;;;;;-1.19;71.78;102372.31;5033205;28;20053;-79
2022/03/06 03:41:25;;;;;;;33.22;17.70;;;;;;;-1.19;71.86;102372.31;5033068;28;20559;-79
2022/03/06 03:43:51;;;;;;;27.42;15.60;;;;;;;-1.21;71.95;102371.34;5033269;28;20042;-79
2022/03/06 03:46:18;;;;;;;34.28;16.38;;;;;;;-1.23;71.82;102383.41;5011821;28;20049;-79
2022/03/06 03:48:46;;;;;;;27.75;14.95;;;;;;;-1.25;72.08;102377.22;5016994;28;20361;-79
2022/03/06 03:51:12;;;;;;;31.02;16.48;;;;;;;-1.26;71.86;102386.72;5050825;28;20135;-79
2022/03/06 03:53:37;;;;;;;30.02;16.15;;;;;;;-1.31;71.70;102376.09;5016443;28;20170;-79
2022/03/06 03:56:04;;;;;;;28.70;16.25;;;;;;;-1.30;71.64;102389.97;5032771;28;20108;-79
2022/03/06 03:58:31;;;;;;;30.88;16.30;;;;;;;-1.33;72.23;102382.03;5051130;28;20036;-79
2022/03/06 04:00:57;;;;;;;31.02;15.15;;;;;;;-1.34;72.53;102385.41;5015998;28;20028;-80
2022/03/06 04:03:23;;;;;;;26.48;13.95;;;;;;;-1.35;72.36;102387.13;5032843;28;20130;-79
2022/03/06 04:05:49;;;;;;;28.67;15.70;;;;;;;-1.37;72.20;102383.56;5033009;28;20045;-79
2022/03/06 04:08:15;;;;;;;24.33;14.68;;;;;;;-1.40;72.44;102398.13;5031695;28;20036;-79
2022/03/06 04:10:41;;;;;;;29.35;15.15;;;;;;;-1.41;72.58;102393.72;5016476;28;20049;-79
2022/03/06 04:13:06;;;;;;;27.77;14.75;;;;;;;-1.41;72.94;102393.72;5032595;28;20033;-79
2022/03/06 04:15:35;;;;;;;24.40;14.27;;;;;;;-1.41;72.83;102401.50;5050633;28;20029;-79
2022/03/06 04:18:00;;;;;;;27.17;15.35;;;;;;;-1.43;72.37;102405.75;5050561;28;20106;-79
2022/03/06 04:20:26;;;;;;;31.42;16.38;;;;;;;-1.44;72.82;102406.56;5032859;28;20100;-79
2022/03/06 04:22:52;;;;;;;25.98;15.00;;;;;;;-1.46;72.76;102406.47;5012510;28;20113;-79
2022/03/06 04:25:18;;;;;;;24.60;13.27;;;;;;;-1.47;72.79;102409.00;5030735;28;20170;-79
2022/03/06 04:27:43;;;;;;;25.27;14.45;;;;;;;-1.48;73.15;102405.50;5012539;28;20052;-79
2022/03/06 04:30:10;;;;;;;28.50;15.20;;;;;;;-1.50;73.08;102406.25;5012403;28;20450;-79
2022/03/06 04:32:36;;;;;;;22.95;13.52;;;;;;;-1.50;72.83;102414.94;4996296;28;20114;-78
2022/03/06 04:35:02;;;;;;;25.63;14.48;;;;;;;-1.52;72.58;102416.56;4996264;28;20132;-79
2022/03/06 04:37:27;;;;;;;27.88;15.25;;;;;;;-1.55;72.82;102425.06;5012602;28;20099;-82
2022/03/06 04:39:52;;;;;;;24.70;15.52;;;;;;;-1.56;72.83;102420.72;5012720;28;20069;-82
2022/03/06 04:42:18;;;;;;;24.42;14.10;;;;;;;-1.56;72.58;102431.09;5012354;28;20143;-82
2022/03/06 04:44:44;;;;;;;26.00;13.65;;;;;;;-1.56;72.21;102436.28;5012597;28;20100;-82
2022/03/06 04:47:09;;;;;;;25.52;15.05;;;;;;;-1.58;72.57;102437.03;5023790;28;20029;-82
2022/03/06 04:49:35;;;;;;;26.17;14.35;;;;;;;-1.59;73.01;102445.63;5032132;28;20037;-82
2022/03/06 04:52:00;;;;;;;29.30;15.05;;;;;;;-1.62;73.08;102443.75;4999252;28;20033;-82
2022/03/06 04:54:26;;;;;;;23.60;14.05;;;;;;;-1.63;73.03;102449.75;5032524;28;20199;-82
2022/03/06 04:56:51;;;;;;;24.23;13.77;;;;;;;-1.65;72.85;102459.19;5031880;28;20061;-82
2022/03/06 04:59:17;;;;;;;25.30;13.68;;;;;;;-1.66;73.08;102457.38;5015831;28;20037;-82
2022/03/06 05:01:43;;;;;;;29.45;15.05;;;;;;;-1.68;72.88;102460.69;5031715;28;20049;-83
2022/03/06 05:04:09;;;;;;;27.40;15.23;;;;;;;-1.73;73.54;102456.16;5032673;28;20045;-83
2022/03/06 05:06:34;;;;;;;29.38;15.32;;;;;;;-1.72;73.43;102457.06;5035729;28;20021;-82
2022/03/06 05:09:00;;;;;;;26.58;14.30;;;;;;;-1.74;73.29;102466.47;5036431;28;20365;-83
2022/03/06 05:11:26;;;;;;;27.98;14.32;;;;;;;-1.77;73.35;102462.00;5019258;28;20065;-83
2022/03/06 05:13:52;;;;;;;28.80;15.52;;;;;;;-1.80;73.20;102472.22;5053822;28;20048;-83
2022/03/06 05:16:17;;;;;;;26.98;14.50;;;;;;;-1.81;73.86;102470.41;5002752;28;20029;-82
2022/03/06 05:18:43;;;;;;;25.67;14.90;;;;;;;-1.82;74.01;102472.94;5053736;28;20285;-82
2022/03/06 05:21:08;;;;;;;27.40;15.10;;;;;;;-1.83;74.27;102468.53;5035701;28;20067;-82
2022/03/06 05:23:34;;;;;;;23.15;12.95;;;;;;;-1.86;74.05;102470.97;5032157;28;20029;-82
2022/03/06 05:25:59;;;;;;;26.40;14.98;;;;;;;-1.88;73.92;102475.19;5015677;28;20349;-83
2022/03/06 05:28:27;;;;;;;25.50;14.38;;;;;;;-1.89;74.04;102468.22;5033614;28;20033;-82
2022/03/06 05:30:54;;;;;;;26.27;14.18;;;;;;;-1.90;74.06;102467.34;5015756;28;20134;-82
2022/03/06 05:33:19;;;;;;;28.42;16.30;;;;;;;-1.91;74.59;102477.63;5047706;28;20119;-82
2022/03/06 05:35:46;;;;;;;27.17;13.93;;;;;;;-1.92;74.11;102476.75;5010962;28;20123;-82
2022/03/06 05:38:12;;;;;;;27.02;15.23;;;;;;;-1.92;74.57;102481.06;5015658;28;20369;-82
2022/03/06 05:40:37;;;;;;;24.73;15.10;;;;;;;-1.92;74.47;102483.66;5015624;28;20030;-82
2022/03/06 05:43:03;;;;;;;25.42;15.02;;;;;;;-1.93;74.23;102489.63;5015670;28;20434;-82
2022/03/06 05:45:28;;;;;;;22.63;13.90;;;;;;;-1.95;74.09;102495.66;4998977;28;20139;-82
2022/03/06 05:47:54;;;;;;;27.95;15.35;;;;;;;-1.99;73.96;102490.19;5033987;28;20033;-82
2022/03/06 05:50:19;;;;;;;27.58;14.90;;;;;;;-2.00;74.09;102494.50;5035177;28;20036;-82
2022/03/06 05:52:45;;;;;;;21.85;14.27;;;;;;;-2.01;74.07;102505.66;5053148;28;20493;-82
2022/03/06 05:55:10;;;;;;;22.23;14.07;;;;;;;-2.02;74.06;102490.03;5035203;28;20045;-82
2022/03/06 05:57:36;;;;;;;22.98;13.98;;;;;;;-2.03;74.34;102499.53;5035110;28;20487;-81
2022/03/06 06:00:08;;;;;;;21.90;14.35;;;;;;;-2.04;74.11;102494.22;5002127;28;20136;-82
2022/03/06 06:02:37;;;;;;;29.92;14.80;;;;;;;-2.06;74.56;102496.72;5018211;28;20369;-82
2022/03/06 06:05:08;;;;;;;24.63;14.32;;;;;;;-2.07;74.41;102497.56;5035935;28;20033;-83
2022/03/06 06:07:34;;;;;;;26.63;14.98;;;;;;;-2.09;74.59;102504.34;5037241;28;20131;-83
2022/03/06 06:10:00;;;;;;;23.35;14.20;;;;;;;-2.11;74.57;102497.28;5036579;28;20140;-82
2022/03/06 06:12:25;;;;;;;22.35;13.73;;;;;;;-2.11;74.02;102507.66;5052560;28;20119;-83
2022/03/06 06:14:51;;;;;;;26.95;15.10;;;;;;;-2.13;74.70;102504.97;5052727;28;20040;-83
2022/03/06 06:17:17;;;;;;;24.25;15.32;;;;;;;-2.13;74.68;102504.09;5052344;28;20104;-83
2022/03/06 06:19:42;;;;;;;28.05;14.75;;;;;;;-2.13;74.62;102509.28;5018147;28;20431;-83
2022/03/06 06:22:08;;;;;;;23.40;13.00;;;;;;;-2.14;74.74;102521.38;5030917;28;20033;-83
2022/03/06 06:24:33;;;;;;;23.17;14.57;;;;;;;-2.16;74.74;102513.50;5033401;28;20041;-83
2022/03/06 06:26:59;;;;;;;24.00;15.07;;;;;;;-2.14;74.62;102523.09;5033216;28;20057;-83
2022/03/06 06:29:24;;;;;;;23.42;14.48;;;;;;;-2.15;74.73;102529.97;4998576;28;20030;-83
2022/03/06 06:31:51;;;;;;;28.08;14.93;;;;;;;-2.16;74.90;102526.47;5014805;28;20127;-83
2022/03/06 06:34:18;;;;;;;23.63;14.13;;;;;;;-2.15;74.95;102522.19;5032532;28;20056;-83
2022/03/06 06:36:44;;;;;;;23.70;13.88;;;;;;;-2.12;74.36;102530.16;5014475;28;20468;-82
2022/03/06 06:39:09;;;;;;;23.75;13.68;;;;;;;-2.12;74.92;102527.56;5032544;28;20049;-83
2022/03/06 06:41:39;;;;;;;25.88;14.70;;;;;;;-2.12;75.01;102530.16;5014141;28;20049;-83
2022/03/06 06:44:06;;;;;;;22.85;13.70;;;;;;;-2.08;74.82;102526.91;5033044;28;20036;-82
2022/03/06 06:46:32;;;;;;;24.48;14.45;;;;;;;-2.05;75.30;102533.97;5021395;28;20052;-83
2022/03/06 06:48:58;;;;;;;26.67;14.48;;;;;;;-2.03;74.63;102543.66;5052380;28;20049;-82
2022/03/06 06:51:24;;;;;;;23.98;13.50;;;;;;;-2.01;74.66;102548.91;5052461;28;20047;-82
2022/03/06 06:53:49;;;;;;;24.95;15.27;;;;;;;-2.00;75.02;102538.63;5034425;28;20055;-82
2022/03/06 06:56:15;;;;;;;24.38;14.70;;;;;;;-1.95;74.65;102542.38;5034216;28;20067;-82
2022/03/06 06:58:40;;;;;;;23.98;13.93;;;;;;;-1.93;74.55;102550.22;5052689;28;20113;-82
2022/03/06 07:01:06;;;;;;;23.25;14.65;;;;;;;-1.90;74.43;102552.09;5051883;28;20036;-82
2022/03/06 07:03:32;;;;;;;25.35;14.60;;;;;;;-1.88;74.50;102556.59;5034218;28;20029;-82
2022/03/06 07:05:58;;;;;;;25.20;14.73;;;;;;;-1.85;75.04;102559.38;5017538;28;20489;-83
2022/03/06 07:08:24;;;;;;;22.30;15.05;;;;;;;-1.82;75.03;102567.31;5034213;28;20063;-82
2022/03/06 07:10:49;;;;;;;23.30;14.30;;;;;;;-1.80;74.65;102563.13;5051940;28;20384;-82
2022/03/06 07:13:15;;;;;;;21.13;14.68;;;;;;;-1.77;74.64;102560.69;5017330;28;20057;-83
2022/03/06 07:15:41;;;;;;;24.20;14.25;;;;;;;-1.72;74.53;102568.75;5034044;28;20086;-82
2022/03/06 07:18:06;;;;;;;24.77;15.38;;;;;;;-1.68;74.85;102570.72;5051790;28;20041;-83
2022/03/06 07:20:32;;;;;;;23.10;14.02;;;;;;;-1.64;74.87;102575.25;5017560;28;20033;-83
2022/03/06 07:22:58;;;;;;;22.33;14.43;;;;;;;-1.60;74.82;102569.41;5030462;28;20018;-82
2022/03/06 07:25:23;;;;;;;23.23;14.05;;;;;;;-1.55;74.58;102580.97;5031711;28;20040;-82
2022/03/06 07:27:49;;;;;;;24.35;14.90;;;;;;;-1.49;74.58;102579.50;5013341;28;20083;-82
2022/03/06 07:30:15;;;;;;;23.98;14.48;;;;;;;-1.44;74.38;102584.13;5033091;28;20060;-83
2022/03/06 07:32:45;;;;;;;25.50;15.23;;;;;;;-1.40;74.29;102583.50;5051745;28;20033;-83
2022/03/06 07:35:10;;;;;;;23.70;13.82;;;;;;;-1.35;74.38;102584.66;5017557;28;20488;-82
2022/03/06 07:37:36;;;;;;;24.08;14.35;;;;;;;-1.26;74.41;102597.28;5033684;28;20036;-82
2022/03/06 07:40:02;;;;;;;26.52;15.35;;;;;;;-1.19;73.97;102603.69;5033561;28;20041;-83
2022/03/06 07:42:28;;;;;;;22.95;15.27;;;;;;;-1.14;73.60;102600.53;5033491;28;20040;-82
2022/03/06 07:44:53;;;;;;;23.17;14.07;;;;;;;-1.08;73.78;102607.75;5016924;28;20489;-83
2022/03/06 07:47:19;;;;;;;22.88;14.45;;;;;;;-1.04;73.81;102601.91;5031495;28;20033;-84
2022/03/06 07:49:44;;;;;;;22.98;13.90;;;;;;;-0.94;73.34;102603.28;5033653;28;20400;-84
2022/03/06 07:52:12;;;;;;;21.73;13.50;;;;;;;-0.88;73.49;102614.91;5052046;28;20504;-84
2022/03/06 07:54:38;;;;;;;20.80;14.07;;;;;;;-0.80;73.22;102614.44;5017688;28;20047;-84
2022/03/06 07:57:04;;;;;;;21.58;14.05;;;;;;;-0.71;73.20;102614.94;5017744;28;20507;-84
2022/03/06 07:59:29;;;;;;;22.58;14.32;;;;;;;-0.63;72.90;102624.03;5016769;28;20128;-84
2022/03/06 08:01:55;;;;;;;22.70;14.40;;;;;;;-0.56;72.55;102620.94;5016661;28;20033;-83
2022/03/06 08:04:21;;;;;;;23.55;13.80;;;;;;;-0.47;72.11;102623.09;5051716;28;20483;-84
2022/03/06 08:06:47;;;;;;;22.55;15.13;;;;;;;-0.42;72.07;102621.66;5017401;28;20052;-83
2022/03/06 08:09:12;;;;;;;26.27;16.05;;;;;;;-0.32;72.17;102620.38;5033401;28;20037;-83
2022/03/06 08:11:38;;;;;;;23.33;13.98;;;;;;;-0.22;72.05;102620.97;5051222;28;20296;-84
2022/03/06 08:14:04;;;;;;;22.27;14.55;;;;;;;-0.13;71.89;102633.53;5051726;28;20151;-84
2022/03/06 08:16:29;;;;;;;22.42;12.75;;;;;;;-0.04;71.64;102638.31;5033218;28;20488;-83
2022/03/06 08:18:55;;;;;;;23.25;13.57;;;;;;;-0.02;71.11;102636.69;5016955;28;20112;-84
2022/03/06 08:21:20;;;;;;;24.08;14.73;;;;;;;0.10;70.96;102633.78;5016113;28;20290;-86
2022/03/06 08:23:46;;;;;;;23.55;13.70;;;;;;;0.18;70.96;102640.28;5051332;28;20040;-85
2022/03/06 08:26:11;;;;;;;22.42;13.18;;;;;;;0.26;70.87;102631.13;5016780;28;20040;-85
2022/03/06 08:28:37;;;;;;;26.38;14.27;;;;;;;0.34;70.49;102639.31;5000933;28;20037;-87
2022/03/06 08:31:02;;;;;;;25.73;12.88;;;;;;;0.40;70.36;102635.31;5000517;28;20124;-87
2022/03/06 08:33:28;;;;;;;25.13;13.43;;;;;;;0.46;69.73;102641.63;5000556;28;20037;-86
2022/03/06 08:35:53;;;;;;;21.45;14.07;;;;;;;0.51;70.17;102643.63;4983795;28;20039;-86
2022/03/06 08:38:19;;;;;;;22.85;13.13;;;;;;;0.59;69.70;102647.53;5016893;28;20540;-85
2022/03/06 08:40:45;;;;;;;22.80;13.45;;;;;;;0.66;69.77;102648.69;5019405;28;20500;-86
2022/03/06 08:43:10;;;;;;;21.92;13.90;;;;;;;0.73;69.88;102649.88;5036013;28;20033;-84
2022/03/06 08:45:37;;;;;;;20.15;12.90;;;;;;;0.80;69.57;102654.56;5053317;28;20060;-84
2022/03/06 08:48:03;;;;;;;20.80;13.60;;;;;;;0.88;69.31;102654.94;5035518;28;20389;-83
2022/03/06 08:50:29;;;;;;;20.17;12.90;;;;;;;0.92;68.49;102655.16;5004265;28;20048;-83
2022/03/06 08:52:54;;;;;;;20.98;13.50;;;;;;;0.99;68.90;102657.22;5036481;28;20476;-84
2022/03/06 08:55:20;;;;;;;21.85;13.23;;;;;;;1.06;69.03;102651.47;5035688;28;20399;-84
2022/03/06 08:57:46;;;;;;;19.88;12.50;;;;;;;1.17;68.75;102648.44;5035952;28;20510;-84
2022/03/06 09:00:12;;;;;;;20.75;14.13;;;;;;;1.22;68.49;102650.44;5036729;28;20091;-84
2022/03/06 09:02:37;;;;;;;21.20;12.50;;;;;;;1.25;68.37;102655.78;5036151;28;20032;-85
2022/03/06 09:05:03;;;;;;;22.75;13.45;;;;;;;1.29;67.57;102657.72;4983654;28;20404;-83
2022/03/06 09:07:28;;;;;;;23.30;13.90;;;;;;;1.37;68.15;102665.91;4999810;28;20041;-84
2022/03/06 09:09:54;;;;;;;21.98;12.18;;;;;;;1.42;68.29;102658.28;4999814;28;20397;-84
2022/03/06 09:12:21;;;;;;;22.63;14.23;;;;;;;1.52;68.00;102664.81;5015606;28;20017;-85
2022/03/06 09:14:46;;;;;;;19.08;12.88;;;;;;;1.61;67.53;102660.88;5015748;28;20496;-84
2022/03/06 09:17:12;;;;;;;22.98;14.30;;;;;;;1.69;67.70;102661.22;4999840;28;20034;-85
2022/03/06 09:19:38;;;;;;;19.58;12.90;;;;;;;1.75;67.08;102656.25;5033954;28;20037;-84
2022/03/06 09:22:04;;;;;;;21.75;12.70;;;;;;;1.83;66.64;102652.25;4986615;28;20028;-85
2022/03/06 09:24:31;;;;;;;18.23;12.98;;;;;;;1.91;66.57;102647.38;5019572;28;20033;-86
2022/03/06 09:26:56;;;;;;;19.17;12.35;;;;;;;1.99;66.28;102659.03;5019129;28;20443;-85
2022/03/06 09:29:22;;;;;;;20.90;12.82;;;;;;;2.05;65.88;102654.06;5036127;28;20051;-86
2022/03/06 09:31:48;;;;;;;20.42;12.20;;;;;;;2.16;66.49;102654.50;5019126;28;20497;-85
2022/03/06 09:34:13;;;;;;;17.60;12.18;;;;;;;2.30;66.20;102653.38;5036074;28;20461;-85
2022/03/06 09:36:39;;;;;;;18.50;12.50;;;;;;;2.42;65.71;102654.69;5053746;28;20520;-85
2022/03/06 09:39:06;;;;;;;20.75;11.93;;;;;;;2.48;65.18;102665.41;5036094;28;20037;-85
2022/03/06 09:41:32;;;;;;;21.08;12.70;;;;;;;2.53;64.91;102653.41;5035761;28;20511;-85
2022/03/06 09:43:57;;;;;;;18.95;12.00;;;;;;;2.58;64.74;102650.13;5035900;28;20124;-86
2022/03/06 09:46:24;;;;;;;21.17;12.13;;;;;;;2.64;64.20;102657.31;5003524;28;20163;-86
2022/03/06 09:48:50;;;;;;;16.58;11.57;;;;;;;2.70;64.82;102659.31;5019006;28;20041;-85
2022/03/06 09:51:16;;;;;;;16.50;11.95;;;;;;;2.79;64.24;102647.50;5052493;28;20062;-86
2022/03/06 09:53:42;;;;;;;20.33;12.07;;;;;;;2.94;63.81;102652.41;5042976;28;20402;-86
2022/03/06 09:56:07;;;;;;;18.48;11.40;;;;;;;3.05;63.59;102657.16;5052812;28;20119;-87
2022/03/06 09:58:33;;;;;;;17.52;10.93;;;;;;;3.12;63.37;102644.38;5002373;28;20132;-86
2022/03/06 10:00:59;;;;;;;16.17;10.88;;;;;;;3.21;62.72;102643.81;5001997;28;20044;-86
2022/03/06 10:03:25;;;;;;;19.45;11.57;;;;;;;3.33;62.59;102649.50;5018057;28;20511;-87
2022/03/06 10:05:54;;;;;;;16.48;11.13;;;;;;;3.48;62.86;102648.28;5018202;28;20037;-88
2022/03/06 10:08:21;;;;;;;15.52;11.10;;;;;;;3.56;62.29;102644.19;5018057;28;20072;-87
2022/03/06 10:10:53;;;;;;;15.93;11.00;;;;;;;3.63;62.41;102638.34;5034123;28;20044;-85
2022/03/06 10:13:22;;;;;;;14.68;10.38;;;;;;;3.76;61.23;102644.91;5034438;28;20048;-87
2022/03/06 10:16:08;;;;;;;15.82;10.07;;;;;;;3.90;61.59;102650.63;5018076;28;20499;-87
2022/03/06 10:21:32;;;;;;;17.08;9.63;;;;;;;4.31;61.39;102638.94;5052328;28;20028;-89
2022/03/06 10:24:08;;;;;;;15.75;10.05;;;;;;;4.43;59.99;102630.56;5017924;28;20571;-88
2022/03/06 10:26:36;;;;;;;14.60;9.55;;;;;;;4.57;60.43;102631.00;5034558;28;20033;-89
2022/03/06 10:29:11;;;;;;;16.65;10.25;;;;;;;4.70;60.36;102634.06;5018054;28;20495;-89
2022/03/06 10:32:04;;;;;;;16.58;10.25;;;;;;;4.86;59.46;102640.66;5017918;28;20029;-88
2022/03/06 10:34:38;;;;;;;13.98;9.00;;;;;;;4.98;57.31;102648.03;5018849;28;20473;-89
2022/03/06 10:37:04;;;;;;;13.70;9.65;;;;;;;5.09;57.07;102637.81;5018112;28;20565;-89
2022/03/06 10:39:42;;;;;;;15.45;9.65;;;;;;;5.24;57.30;102647.88;5018661;28;20025;-88
2022/03/06 10:42:09;;;;;;;15.15;9.38;;;;;;;5.34;56.48;102649.94;5018583;28;20095;-89
2022/03/06 10:44:54;;;;;;;;;;;;;;;;;;;;;
2022/03/06 10:47:47;;;;;;;15.77;8.73;;;;;;;5.64;55.58;102635.88;5133256;27;20467;-91
2022/03/06 10:50:21;;;;;;;17.75;9.13;;;;;;;5.77;54.84;102636.25;5095993;28;20043;-88
2022/03/06 10:52:47;;;;;;;13.80;9.05;;;;;;;5.88;54.38;102633.91;5072825;28;20028;-92
2022/03/06 10:55:13;;;;;;;13.63;8.43;;;;;;;6.00;53.62;102631.63;5042438;28;20479;-87
2022/03/06 10:57:40;;;;;;;14.25;9.18;;;;;;;6.13;54.90;102638.09;5055629;28;20047;-92
2022/03/06 11:00:06;;;;;;;13.20;8.98;;;;;;;6.30;53.37;102627.97;5091076;28;20122;-90
2022/03/06 11:02:34;;;;;;;16.77;10.13;;;;;;;6.52;52.20;102639.03;5058995;28;20021;-88
2022/03/06 11:05:01;;;;;;;21.70;10.30;;;;;;;6.64;50.23;102631.41;5061973;28;20039;-91
2022/03/06 11:07:28;;;;;;;14.93;9.20;;;;;;;6.66;49.71;102632.34;5056236;28;20119;-88
2022/03/06 11:09:57;;;;;;;15.57;9.38;;;;;;;6.66;49.97;102625.34;5046795;28;20598;-90
2022/03/06 11:12:26;;;;;;;14.18;9.45;;;;;;;6.84;50.09;102631.88;5034206;28;20508;-89
2022/03/06 11:14:52;;;;;;;13.05;8.77;;;;;;;7.01;49.04;102626.97;5034835;28;20067;-87